sensor_id;sensor_type;location;lat;lon;timestamp;P1;durP1;ratioP1;P2;durP2;ratioP2
3999;SDS011;2014;53.604;10.112;2023-02-01T00:01:06;13.60;;;3.60;;
3999;SDS011;2014;53.604;10.112;2023-02-01T00:03:34;15.27;;;2.30;;
3999;SDS011;2014;53.604;10.112;2023-02-01T00:06:02;25.43;;;4.37;;
3999;SDS011;2014;53.604;10.112;2023-02-01T00:08:33;14.07;;;3.27;;
3999;SDS011;2014;53.604;10.112;2023-02-01T00:11:01;12.20;;;2.93;;
3999;SDS011;2014;53.604;10.112;2023-02-01T00:13:29;6.97;;;2.43;;
3999;SDS011;2014;53.604;10.112;2023-02-01T00:16:04;15.33;;;2.73;;
3999;SDS011;2014;53.604;10.112;2023-02-01T00:18:31;25.80;;;3.17;;
3999;SDS011;2014;53.604;10.112;2023-02-01T00:21:01;15.00;;;1.90;;
3999;SDS011;2014;53.604;10.112;2023-02-01T00:23:31;13.83;;;3.00;;
3999;SDS011;2014;53.604;10.112;2023-02-01T00:26:02;21.10;;;2.57;;
3999;SDS011;2014;53.604;10.112;2023-02-01T00:28:30;20.27;;;3.90;;
3999;SDS011;2014;53.604;10.112;2023-02-01T00:30:57;16.07;;;3.80;;
3999;SDS011;2014;53.604;10.112;2023-02-01T00:33:25;19.80;;;4.03;;
3999;SDS011;2014;53.604;10.112;2023-02-01T00:35:55;24.23;;;4.27;;
3999;SDS011;2014;53.604;10.112;2023-02-01T00:38:23;17.07;;;2.57;;
3999;SDS011;2014;53.604;10.112;2023-02-01T00:40:51;23.93;;;3.30;;
3999;SDS011;2014;53.604;10.112;2023-02-01T00:43:19;17.27;;;2.37;;
3999;SDS011;2014;53.604;10.112;2023-02-01T00:45:47;31.13;;;3.90;;
3999;SDS011;2014;53.604;10.112;2023-02-01T00:48:16;11.23;;;3.00;;
3999;SDS011;2014;53.604;10.112;2023-02-01T00:50:44;25.27;;;4.30;;
3999;SDS011;2014;53.604;10.112;2023-02-01T00:53:11;20.40;;;2.70;;
3999;SDS011;2014;53.604;10.112;2023-02-01T00:55:38;19.73;;;4.37;;
3999;SDS011;2014;53.604;10.112;2023-02-01T00:58:09;31.90;;;4.73;;
3999;SDS011;2014;53.604;10.112;2023-02-01T01:00:37;22.57;;;2.67;;
3999;SDS011;2014;53.604;10.112;2023-02-01T01:03:06;14.53;;;2.83;;
3999;SDS011;2014;53.604;10.112;2023-02-01T01:05:43;19.63;;;3.47;;
3999;SDS011;2014;53.604;10.112;2023-02-01T01:08:13;13.73;;;3.47;;
3999;SDS011;2014;53.604;10.112;2023-02-01T01:10:42;16.50;;;3.47;;
3999;SDS011;2014;53.604;10.112;2023-02-01T01:13:14;25.67;;;3.50;;
3999;SDS011;2014;53.604;10.112;2023-02-01T01:15:46;25.57;;;4.00;;
3999;SDS011;2014;53.604;10.112;2023-02-01T01:18:13;24.67;;;2.70;;
3999;SDS011;2014;53.604;10.112;2023-02-01T01:20:47;17.80;;;2.60;;
3999;SDS011;2014;53.604;10.112;2023-02-01T01:23:17;23.70;;;5.07;;
3999;SDS011;2014;53.604;10.112;2023-02-01T01:25:44;24.37;;;4.17;;
3999;SDS011;2014;53.604;10.112;2023-02-01T01:28:11;28.93;;;3.90;;
3999;SDS011;2014;53.604;10.112;2023-02-01T01:30:39;27.53;;;4.27;;
3999;SDS011;2014;53.604;10.112;2023-02-01T01:33:07;33.10;;;4.93;;
3999;SDS011;2014;53.604;10.112;2023-02-01T01:35:35;28.07;;;4.20;;
3999;SDS011;2014;53.604;10.112;2023-02-01T01:38:02;19.27;;;4.57;;
3999;SDS011;2014;53.604;10.112;2023-02-01T01:40:30;20.83;;;2.77;;
3999;SDS011;2014;53.604;10.112;2023-02-01T01:42:58;22.30;;;3.27;;
3999;SDS011;2014;53.604;10.112;2023-02-01T01:45:31;20.70;;;3.33;;
3999;SDS011;2014;53.604;10.112;2023-02-01T01:48:13;21.10;;;3.30;;
3999;SDS011;2014;53.604;10.112;2023-02-01T01:50:50;24.30;;;4.50;;
3999;SDS011;2014;53.604;10.112;2023-02-01T01:53:18;10.63;;;3.00;;
3999;SDS011;2014;53.604;10.112;2023-02-01T01:55:46;23.17;;;3.90;;
3999;SDS011;2014;53.604;10.112;2023-02-01T01:58:15;22.00;;;3.10;;
3999;SDS011;2014;53.604;10.112;2023-02-01T02:00:47;30.63;;;4.43;;
3999;SDS011;2014;53.604;10.112;2023-02-01T02:03:17;22.70;;;3.50;;
3999;SDS011;2014;53.604;10.112;2023-02-01T02:05:45;28.60;;;4.30;;
3999;SDS011;2014;53.604;10.112;2023-02-01T02:08:13;21.93;;;3.30;;
3999;SDS011;2014;53.604;10.112;2023-02-01T02:10:40;30.03;;;3.97;;
3999;SDS011;2014;53.604;10.112;2023-02-01T02:13:26;15.57;;;3.27;;
3999;SDS011;2014;53.604;10.112;2023-02-01T02:16:00;19.90;;;3.40;;
3999;SDS011;2014;53.604;10.112;2023-02-01T02:18:33;14.97;;;3.23;;
3999;SDS011;2014;53.604;10.112;2023-02-01T02:21:10;15.40;;;3.00;;
3999;SDS011;2014;53.604;10.112;2023-02-01T02:29:37;17.23;;;3.67;;
3999;SDS011;2014;53.604;10.112;2023-02-01T02:32:22;22.60;;;2.80;;
3999;SDS011;2014;53.604;10.112;2023-02-01T02:34:55;16.87;;;3.80;;
3999;SDS011;2014;53.604;10.112;2023-02-01T02:37:31;24.77;;;3.90;;
3999;SDS011;2014;53.604;10.112;2023-02-01T02:40:02;30.67;;;3.50;;
3999;SDS011;2014;53.604;10.112;2023-02-01T02:42:34;27.00;;;4.00;;
3999;SDS011;2014;53.604;10.112;2023-02-01T02:45:23;16.40;;;3.77;;
3999;SDS011;2014;53.604;10.112;2023-02-01T02:48:25;14.77;;;3.20;;
3999;SDS011;2014;53.604;10.112;2023-02-01T02:51:03;23.00;;;2.87;;
3999;SDS011;2014;53.604;10.112;2023-02-01T02:53:51;13.73;;;4.00;;
3999;SDS011;2014;53.604;10.112;2023-02-01T02:56:41;26.90;;;2.93;;
3999;SDS011;2014;53.604;10.112;2023-02-01T02:59:28;18.47;;;4.73;;
3999;SDS011;2014;53.604;10.112;2023-02-01T03:02:15;17.23;;;3.00;;
3999;SDS011;2014;53.604;10.112;2023-02-01T03:05:00;26.83;;;3.43;;
3999;SDS011;2014;53.604;10.112;2023-02-01T03:07:49;33.03;;;4.50;;
3999;SDS011;2014;53.604;10.112;2023-02-01T03:10:23;16.87;;;4.23;;
3999;SDS011;2014;53.604;10.112;2023-02-01T03:12:51;19.83;;;3.20;;
3999;SDS011;2014;53.604;10.112;2023-02-01T03:15:27;28.53;;;4.67;;
3999;SDS011;2014;53.604;10.112;2023-02-01T03:17:57;34.63;;;4.87;;
3999;SDS011;2014;53.604;10.112;2023-02-01T03:20:24;29.10;;;4.63;;
3999;SDS011;2014;53.604;10.112;2023-02-01T03:22:54;30.27;;;4.20;;
3999;SDS011;2014;53.604;10.112;2023-02-01T03:25:27;16.23;;;3.70;;
3999;SDS011;2014;53.604;10.112;2023-02-01T03:27:57;18.20;;;3.00;;
3999;SDS011;2014;53.604;10.112;2023-02-01T03:30:29;22.07;;;3.93;;
3999;SDS011;2014;53.604;10.112;2023-02-01T03:32:58;27.83;;;5.07;;
3999;SDS011;2014;53.604;10.112;2023-02-01T03:35:30;22.40;;;3.93;;
3999;SDS011;2014;53.604;10.112;2023-02-01T03:38:03;32.47;;;5.20;;
3999;SDS011;2014;53.604;10.112;2023-02-01T03:40:34;9.17;;;2.50;;
3999;SDS011;2014;53.604;10.112;2023-02-01T03:43:06;11.10;;;3.90;;
3999;SDS011;2014;53.604;10.112;2023-02-01T03:45:36;26.93;;;2.90;;
3999;SDS011;2014;53.604;10.112;2023-02-01T03:48:05;15.90;;;3.83;;
3999;SDS011;2014;53.604;10.112;2023-02-01T03:50:36;9.17;;;2.07;;
3999;SDS011;2014;53.604;10.112;2023-02-01T03:53:08;15.17;;;3.60;;
3999;SDS011;2014;53.604;10.112;2023-02-01T03:55:39;12.33;;;2.30;;
3999;SDS011;2014;53.604;10.112;2023-02-01T03:58:07;15.80;;;3.47;;
3999;SDS011;2014;53.604;10.112;2023-02-01T04:00:37;12.87;;;2.50;;
3999;SDS011;2014;53.604;10.112;2023-02-01T04:03:07;9.27;;;1.83;;
3999;SDS011;2014;53.604;10.112;2023-02-01T04:05:35;11.97;;;2.50;;
3999;SDS011;2014;53.604;10.112;2023-02-01T04:08:02;3.73;;;2.00;;
3999;SDS011;2014;53.604;10.112;2023-02-01T04:10:33;12.77;;;2.57;;
3999;SDS011;2014;53.604;10.112;2023-02-01T04:13:01;6.33;;;1.77;;
3999;SDS011;2014;53.604;10.112;2023-02-01T04:15:30;23.30;;;2.43;;
3999;SDS011;2014;53.604;10.112;2023-02-01T04:17:59;11.60;;;2.10;;
3999;SDS011;2014;53.604;10.112;2023-02-01T04:20:26;13.10;;;2.87;;
3999;SDS011;2014;53.604;10.112;2023-02-01T04:22:54;11.90;;;2.83;;
3999;SDS011;2014;53.604;10.112;2023-02-01T04:25:21;22.77;;;2.80;;
3999;SDS011;2014;53.604;10.112;2023-02-01T04:27:50;21.20;;;3.80;;
3999;SDS011;2014;53.604;10.112;2023-02-01T04:30:20;21.07;;;2.70;;
3999;SDS011;2014;53.604;10.112;2023-02-01T04:32:48;9.90;;;2.83;;
3999;SDS011;2014;53.604;10.112;2023-02-01T04:35:16;13.37;;;2.80;;
3999;SDS011;2014;53.604;10.112;2023-02-01T04:37:48;13.90;;;3.13;;
3999;SDS011;2014;53.604;10.112;2023-02-01T04:40:15;16.43;;;2.60;;
3999;SDS011;2014;53.604;10.112;2023-02-01T04:42:42;12.50;;;2.40;;
3999;SDS011;2014;53.604;10.112;2023-02-01T04:45:11;17.87;;;2.17;;
3999;SDS011;2014;53.604;10.112;2023-02-01T04:47:39;8.90;;;2.30;;
3999;SDS011;2014;53.604;10.112;2023-02-01T04:50:06;14.63;;;2.07;;
3999;SDS011;2014;53.604;10.112;2023-02-01T04:52:35;6.83;;;1.77;;
3999;SDS011;2014;53.604;10.112;2023-02-01T04:55:03;8.50;;;3.90;;
3999;SDS011;2014;53.604;10.112;2023-02-01T04:57:33;5.83;;;1.50;;
3999;SDS011;2014;53.604;10.112;2023-02-01T05:00:00;4.93;;;1.00;;
3999;SDS011;2014;53.604;10.112;2023-02-01T05:02:32;7.57;;;1.83;;
3999;SDS011;2014;53.604;10.112;2023-02-01T05:05:00;10.90;;;1.87;;
3999;SDS011;2014;53.604;10.112;2023-02-01T05:07:27;10.70;;;1.40;;
3999;SDS011;2014;53.604;10.112;2023-02-01T05:09:54;2.00;;;1.00;;
3999;SDS011;2014;53.604;10.112;2023-02-01T05:12:22;4.03;;;1.43;;
3999;SDS011;2014;53.604;10.112;2023-02-01T05:15:03;6.80;;;1.43;;
3999;SDS011;2014;53.604;10.112;2023-02-01T05:17:35;4.30;;;1.30;;
3999;SDS011;2014;53.604;10.112;2023-02-01T05:20:05;1.97;;;0.60;;
3999;SDS011;2014;53.604;10.112;2023-02-01T05:22:35;4.57;;;1.17;;
3999;SDS011;2014;53.604;10.112;2023-02-01T05:25:02;3.43;;;1.30;;
3999;SDS011;2014;53.604;10.112;2023-02-01T05:27:29;0.90;;;0.90;;
3999;SDS011;2014;53.604;10.112;2023-02-01T05:29:57;2.40;;;0.90;;
3999;SDS011;2014;53.604;10.112;2023-02-01T05:32:27;0.97;;;0.50;;
3999;SDS011;2014;53.604;10.112;2023-02-01T05:34:56;4.20;;;0.40;;
3999;SDS011;2014;53.604;10.112;2023-02-01T05:37:23;0.50;;;0.40;;
3999;SDS011;2014;53.604;10.112;2023-02-01T05:39:51;1.07;;;0.47;;
3999;SDS011;2014;53.604;10.112;2023-02-01T05:42:18;3.40;;;0.50;;
3999;SDS011;2014;53.604;10.112;2023-02-01T05:44:45;0.47;;;0.40;;
3999;SDS011;2014;53.604;10.112;2023-02-01T05:47:12;0.63;;;0.63;;
3999;SDS011;2014;53.604;10.112;2023-02-01T05:49:40;0.63;;;0.40;;
3999;SDS011;2014;53.604;10.112;2023-02-01T05:52:16;4.03;;;0.70;;
3999;SDS011;2014;53.604;10.112;2023-02-01T05:54:44;3.70;;;1.80;;
3999;SDS011;2014;53.604;10.112;2023-02-01T05:57:15;0.60;;;0.40;;
3999;SDS011;2014;53.604;10.112;2023-02-01T05:59:44;1.90;;;0.40;;
3999;SDS011;2014;53.604;10.112;2023-02-01T06:02:13;0.40;;;0.40;;
3999;SDS011;2014;53.604;10.112;2023-02-01T06:04:40;1.00;;;0.40;;
3999;SDS011;2014;53.604;10.112;2023-02-01T06:07:08;3.90;;;0.40;;
3999;SDS011;2014;53.604;10.112;2023-02-01T06:09:38;0.80;;;0.50;;
3999;SDS011;2014;53.604;10.112;2023-02-01T06:12:06;1.30;;;0.50;;
3999;SDS011;2014;53.604;10.112;2023-02-01T06:14:33;0.50;;;0.40;;
3999;SDS011;2014;53.604;10.112;2023-02-01T06:17:02;3.13;;;0.50;;
3999;SDS011;2014;53.604;10.112;2023-02-01T06:19:30;2.83;;;0.30;;
3999;SDS011;2014;53.604;10.112;2023-02-01T06:21:57;2.40;;;0.60;;
3999;SDS011;2014;53.604;10.112;2023-02-01T06:24:25;0.73;;;0.60;;
3999;SDS011;2014;53.604;10.112;2023-02-01T06:26:54;2.00;;;0.70;;
3999;SDS011;2014;53.604;10.112;2023-02-01T06:29:21;1.63;;;0.63;;
3999;SDS011;2014;53.604;10.112;2023-02-01T06:31:49;2.10;;;0.60;;
3999;SDS011;2014;53.604;10.112;2023-02-01T06:34:16;4.03;;;1.10;;
3999;SDS011;2014;53.604;10.112;2023-02-01T06:36:49;1.17;;;0.67;;
3999;SDS011;2014;53.604;10.112;2023-02-01T06:39:16;1.30;;;0.60;;
3999;SDS011;2014;53.604;10.112;2023-02-01T06:41:45;1.17;;;1.17;;
3999;SDS011;2014;53.604;10.112;2023-02-01T06:44:17;0.80;;;0.80;;
3999;SDS011;2014;53.604;10.112;2023-02-01T06:46:46;7.17;;;1.00;;
3999;SDS011;2014;53.604;10.112;2023-02-01T06:49:13;3.30;;;0.87;;
3999;SDS011;2014;53.604;10.112;2023-02-01T06:51:40;1.27;;;0.90;;
3999;SDS011;2014;53.604;10.112;2023-02-01T06:54:07;9.70;;;1.77;;
3999;SDS011;2014;53.604;10.112;2023-02-01T06:56:38;11.17;;;1.50;;
3999;SDS011;2014;53.604;10.112;2023-02-01T06:59:05;5.50;;;1.03;;
3999;SDS011;2014;53.604;10.112;2023-02-01T07:01:34;19.57;;;1.40;;
3999;SDS011;2014;53.604;10.112;2023-02-01T07:04:01;3.03;;;1.00;;
3999;SDS011;2014;53.604;10.112;2023-02-01T07:06:29;4.97;;;1.10;;
3999;SDS011;2014;53.604;10.112;2023-02-01T07:08:58;21.63;;;1.77;;
3999;SDS011;2014;53.604;10.112;2023-02-01T07:11:25;6.90;;;1.40;;
3999;SDS011;2014;53.604;10.112;2023-02-01T07:13:53;3.07;;;1.30;;
3999;SDS011;2014;53.604;10.112;2023-02-01T07:16:20;8.70;;;1.70;;
3999;SDS011;2014;53.604;10.112;2023-02-01T07:18:49;4.83;;;1.83;;
3999;SDS011;2014;53.604;10.112;2023-02-01T07:21:17;11.50;;;1.80;;
3999;SDS011;2014;53.604;10.112;2023-02-01T07:23:44;21.10;;;2.67;;
3999;SDS011;2014;53.604;10.112;2023-02-01T07:26:12;3.90;;;1.40;;
3999;SDS011;2014;53.604;10.112;2023-02-01T07:28:41;4.47;;;1.70;;
3999;SDS011;2014;53.604;10.112;2023-02-01T07:31:09;12.13;;;2.00;;
3999;SDS011;2014;53.604;10.112;2023-02-01T07:33:36;17.80;;;2.17;;
3999;SDS011;2014;53.604;10.112;2023-02-01T07:36:06;9.50;;;2.37;;
3999;SDS011;2014;53.604;10.112;2023-02-01T07:38:36;11.33;;;2.20;;
3999;SDS011;2014;53.604;10.112;2023-02-01T07:41:04;20.50;;;2.07;;
3999;SDS011;2014;53.604;10.112;2023-02-01T07:43:34;20.07;;;2.60;;
3999;SDS011;2014;53.604;10.112;2023-02-01T07:46:02;11.97;;;2.90;;
3999;SDS011;2014;53.604;10.112;2023-02-01T07:48:31;8.77;;;2.23;;
3999;SDS011;2014;53.604;10.112;2023-02-01T07:50:59;12.00;;;2.57;;
3999;SDS011;2014;53.604;10.112;2023-02-01T07:53:31;8.33;;;1.70;;
3999;SDS011;2014;53.604;10.112;2023-02-01T07:56:01;10.13;;;2.50;;
3999;SDS011;2014;53.604;10.112;2023-02-01T07:58:28;10.70;;;1.83;;
3999;SDS011;2014;53.604;10.112;2023-02-01T08:00:55;16.30;;;2.47;;
3999;SDS011;2014;53.604;10.112;2023-02-01T08:03:40;18.67;;;2.37;;
3999;SDS011;2014;53.604;10.112;2023-02-01T08:06:07;15.93;;;2.20;;
3999;SDS011;2014;53.604;10.112;2023-02-01T08:08:38;14.20;;;3.10;;
3999;SDS011;2014;53.604;10.112;2023-02-01T08:11:06;8.67;;;1.90;;
3999;SDS011;2014;53.604;10.112;2023-02-01T08:13:34;25.00;;;3.70;;
3999;SDS011;2014;53.604;10.112;2023-02-01T08:16:02;16.87;;;2.93;;
3999;SDS011;2014;53.604;10.112;2023-02-01T08:18:29;17.37;;;3.00;;
3999;SDS011;2014;53.604;10.112;2023-02-01T08:21:02;13.17;;;3.00;;
3999;SDS011;2014;53.604;10.112;2023-02-01T08:23:32;33.80;;;3.33;;
3999;SDS011;2014;53.604;10.112;2023-02-01T08:26:10;19.87;;;3.67;;
3999;SDS011;2014;53.604;10.112;2023-02-01T08:28:42;10.10;;;2.70;;
3999;SDS011;2014;53.604;10.112;2023-02-01T08:31:14;21.13;;;2.83;;
3999;SDS011;2014;53.604;10.112;2023-02-01T08:33:50;16.47;;;3.00;;
3999;SDS011;2014;53.604;10.112;2023-02-01T08:36:25;22.23;;;4.03;;
3999;SDS011;2014;53.604;10.112;2023-02-01T08:39:00;19.27;;;4.23;;
3999;SDS011;2014;53.604;10.112;2023-02-01T08:41:41;20.23;;;3.00;;
3999;SDS011;2014;53.604;10.112;2023-02-01T08:44:36;14.87;;;2.70;;
3999;SDS011;2014;53.604;10.112;2023-02-01T08:47:11;16.70;;;2.70;;
3999;SDS011;2014;53.604;10.112;2023-02-01T08:49:41;21.37;;;3.30;;
3999;SDS011;2014;53.604;10.112;2023-02-01T08:52:12;16.17;;;1.40;;
3999;SDS011;2014;53.604;10.112;2023-02-01T08:54:43;11.27;;;2.10;;
3999;SDS011;2014;53.604;10.112;2023-02-01T08:57:20;10.33;;;2.83;;
3999;SDS011;2014;53.604;10.112;2023-02-01T08:59:51;12.73;;;2.30;;
3999;SDS011;2014;53.604;10.112;2023-02-01T09:02:23;4.60;;;1.83;;
3999;SDS011;2014;53.604;10.112;2023-02-01T09:04:54;13.30;;;1.90;;
3999;SDS011;2014;53.604;10.112;2023-02-01T09:07:31;13.47;;;3.57;;
3999;SDS011;2014;53.604;10.112;2023-02-01T09:10:02;13.33;;;3.10;;
3999;SDS011;2014;53.604;10.112;2023-02-01T09:12:37;9.60;;;2.20;;
3999;SDS011;2014;53.604;10.112;2023-02-01T09:15:08;16.47;;;3.17;;
3999;SDS011;2014;53.604;10.112;2023-02-01T09:17:40;16.63;;;2.50;;
3999;SDS011;2014;53.604;10.112;2023-02-01T09:20:12;6.20;;;2.03;;
3999;SDS011;2014;53.604;10.112;2023-02-01T09:22:41;10.97;;;2.13;;
3999;SDS011;2014;53.604;10.112;2023-02-01T09:25:09;11.47;;;3.63;;
3999;SDS011;2014;53.604;10.112;2023-02-01T09:27:38;17.23;;;3.30;;
3999;SDS011;2014;53.604;10.112;2023-02-01T09:30:08;17.27;;;2.63;;
3999;SDS011;2014;53.604;10.112;2023-02-01T09:32:36;12.63;;;2.53;;
3999;SDS011;2014;53.604;10.112;2023-02-01T09:35:03;9.87;;;2.40;;
3999;SDS011;2014;53.604;10.112;2023-02-01T09:37:30;16.73;;;3.73;;
3999;SDS011;2014;53.604;10.112;2023-02-01T09:39:58;23.93;;;2.77;;
3999;SDS011;2014;53.604;10.112;2023-02-01T09:42:34;16.57;;;2.20;;
3999;SDS011;2014;53.604;10.112;2023-02-01T09:45:09;28.10;;;4.90;;
3999;SDS011;2014;53.604;10.112;2023-02-01T09:47:40;26.87;;;3.73;;
3999;SDS011;2014;53.604;10.112;2023-02-01T09:50:11;23.10;;;2.70;;
3999;SDS011;2014;53.604;10.112;2023-02-01T09:52:42;15.13;;;4.27;;
3999;SDS011;2014;53.604;10.112;2023-02-01T09:55:13;12.23;;;2.87;;
3999;SDS011;2014;53.604;10.112;2023-02-01T09:57:44;11.30;;;3.13;;
3999;SDS011;2014;53.604;10.112;2023-02-01T10:00:16;27.53;;;2.73;;
3999;SDS011;2014;53.604;10.112;2023-02-01T10:02:44;20.50;;;4.23;;
3999;SDS011;2014;53.604;10.112;2023-02-01T10:05:12;9.50;;;2.73;;
3999;SDS011;2014;53.604;10.112;2023-02-01T10:07:41;17.77;;;2.70;;
3999;SDS011;2014;53.604;10.112;2023-02-01T10:10:10;23.13;;;3.23;;
3999;SDS011;2014;53.604;10.112;2023-02-01T10:12:47;12.93;;;2.77;;
3999;SDS011;2014;53.604;10.112;2023-02-01T10:15:28;15.00;;;2.63;;
3999;SDS011;2014;53.604;10.112;2023-02-01T10:18:04;10.70;;;2.73;;
3999;SDS011;2014;53.604;10.112;2023-02-01T10:20:36;16.50;;;3.47;;
3999;SDS011;2014;53.604;10.112;2023-02-01T10:23:14;13.73;;;3.17;;
3999;SDS011;2014;53.604;10.112;2023-02-01T10:25:49;15.67;;;2.83;;
3999;SDS011;2014;53.604;10.112;2023-02-01T10:28:20;13.60;;;2.53;;
3999;SDS011;2014;53.604;10.112;2023-02-01T10:30:51;10.97;;;2.47;;
3999;SDS011;2014;53.604;10.112;2023-02-01T10:33:22;12.80;;;2.77;;
3999;SDS011;2014;53.604;10.112;2023-02-01T10:35:52;12.87;;;2.23;;
3999;SDS011;2014;53.604;10.112;2023-02-01T10:38:22;8.20;;;2.70;;
3999;SDS011;2014;53.604;10.112;2023-02-01T10:40:51;26.00;;;3.93;;
3999;SDS011;2014;53.604;10.112;2023-02-01T10:43:19;33.50;;;3.50;;
3999;SDS011;2014;53.604;10.112;2023-02-01T10:45:47;20.07;;;2.90;;
3999;SDS011;2014;53.604;10.112;2023-02-01T10:48:18;19.17;;;3.17;;
3999;SDS011;2014;53.604;10.112;2023-02-01T10:50:46;16.90;;;2.87;;
3999;SDS011;2014;53.604;10.112;2023-02-01T10:53:18;5.47;;;2.67;;
3999;SDS011;2014;53.604;10.112;2023-02-01T10:55:47;10.43;;;2.20;;
3999;SDS011;2014;53.604;10.112;2023-02-01T10:58:16;19.33;;;1.77;;
3999;SDS011;2014;53.604;10.112;2023-02-01T11:00:45;19.97;;;3.13;;
3999;SDS011;2014;53.604;10.112;2023-02-01T11:03:21;23.00;;;2.73;;
3999;SDS011;2014;53.604;10.112;2023-02-01T11:05:49;15.87;;;2.20;;
3999;SDS011;2014;53.604;10.112;2023-02-01T11:08:16;20.83;;;4.00;;
3999;SDS011;2014;53.604;10.112;2023-02-01T11:10:46;13.53;;;3.00;;
3999;SDS011;2014;53.604;10.112;2023-02-01T11:13:14;15.10;;;3.33;;
3999;SDS011;2014;53.604;10.112;2023-02-01T11:15:45;6.63;;;2.47;;
3999;SDS011;2014;53.604;10.112;2023-02-01T11:18:17;10.50;;;2.53;;
3999;SDS011;2014;53.604;10.112;2023-02-01T11:20:48;13.60;;;1.63;;
3999;SDS011;2014;53.604;10.112;2023-02-01T11:23:18;9.57;;;1.80;;
3999;SDS011;2014;53.604;10.112;2023-02-01T11:25:50;6.57;;;2.00;;
3999;SDS011;2014;53.604;10.112;2023-02-01T11:28:21;15.43;;;2.37;;
3999;SDS011;2014;53.604;10.112;2023-02-01T11:30:52;11.60;;;2.03;;
3999;SDS011;2014;53.604;10.112;2023-02-01T11:33:22;13.23;;;2.43;;
3999;SDS011;2014;53.604;10.112;2023-02-01T11:35:53;5.30;;;3.27;;
3999;SDS011;2014;53.604;10.112;2023-02-01T11:38:23;10.13;;;2.13;;
3999;SDS011;2014;53.604;10.112;2023-02-01T11:40:52;9.73;;;2.27;;
3999;SDS011;2014;53.604;10.112;2023-02-01T11:43:22;11.70;;;2.53;;
3999;SDS011;2014;53.604;10.112;2023-02-01T11:45:53;8.23;;;2.10;;
3999;SDS011;2014;53.604;10.112;2023-02-01T11:48:21;17.37;;;2.50;;
3999;SDS011;2014;53.604;10.112;2023-02-01T11:50:51;11.90;;;2.40;;
3999;SDS011;2014;53.604;10.112;2023-02-01T11:53:30;12.57;;;2.20;;
3999;SDS011;2014;53.604;10.112;2023-02-01T11:56:04;12.90;;;2.83;;
3999;SDS011;2014;53.604;10.112;2023-02-01T11:58:47;18.23;;;2.30;;
3999;SDS011;2014;53.604;10.112;2023-02-01T12:01:24;13.33;;;2.60;;
3999;SDS011;2014;53.604;10.112;2023-02-01T12:04:00;3.73;;;1.33;;
3999;SDS011;2014;53.604;10.112;2023-02-01T12:06:35;12.60;;;2.53;;
3999;SDS011;2014;53.604;10.112;2023-02-01T12:09:08;17.67;;;2.20;;
3999;SDS011;2014;53.604;10.112;2023-02-01T12:11:44;12.77;;;2.20;;
3999;SDS011;2014;53.604;10.112;2023-02-01T12:14:19;10.23;;;1.77;;
3999;SDS011;2014;53.604;10.112;2023-02-01T12:16:53;5.93;;;1.40;;
3999;SDS011;2014;53.604;10.112;2023-02-01T12:19:31;7.60;;;2.10;;
3999;SDS011;2014;53.604;10.112;2023-02-01T12:22:09;14.43;;;1.87;;
3999;SDS011;2014;53.604;10.112;2023-02-01T12:24:48;9.77;;;1.47;;
3999;SDS011;2014;53.604;10.112;2023-02-01T12:27:26;8.90;;;1.50;;
3999;SDS011;2014;53.604;10.112;2023-02-01T12:30:02;6.07;;;1.43;;
3999;SDS011;2014;53.604;10.112;2023-02-01T12:32:39;2.37;;;1.53;;
3999;SDS011;2014;53.604;10.112;2023-02-01T12:35:16;6.90;;;1.23;;
3999;SDS011;2014;53.604;10.112;2023-02-01T12:37:50;10.00;;;1.47;;
3999;SDS011;2014;53.604;10.112;2023-02-01T12:40:24;3.73;;;0.77;;
3999;SDS011;2014;53.604;10.112;2023-02-01T12:42:57;3.90;;;0.80;;
3999;SDS011;2014;53.604;10.112;2023-02-01T12:45:28;3.07;;;0.90;;
3999;SDS011;2014;53.604;10.112;2023-02-01T12:47:59;2.20;;;0.70;;
3999;SDS011;2014;53.604;10.112;2023-02-01T12:50:28;1.20;;;0.70;;
3999;SDS011;2014;53.604;10.112;2023-02-01T12:53:01;2.50;;;0.60;;
3999;SDS011;2014;53.604;10.112;2023-02-01T12:55:38;3.00;;;0.80;;
3999;SDS011;2014;53.604;10.112;2023-02-01T12:58:12;2.27;;;0.53;;
3999;SDS011;2014;53.604;10.112;2023-02-01T13:00:43;0.90;;;0.50;;
3999;SDS011;2014;53.604;10.112;2023-02-01T13:03:11;4.63;;;0.47;;
3999;SDS011;2014;53.604;10.112;2023-02-01T13:05:44;0.43;;;0.43;;
3999;SDS011;2014;53.604;10.112;2023-02-01T13:08:14;0.47;;;0.40;;
3999;SDS011;2014;53.604;10.112;2023-02-01T13:10:46;2.40;;;0.50;;
3999;SDS011;2014;53.604;10.112;2023-02-01T13:13:16;0.40;;;0.30;;
3999;SDS011;2014;53.604;10.112;2023-02-01T13:15:46;0.60;;;0.50;;
3999;SDS011;2014;53.604;10.112;2023-02-01T13:18:15;0.70;;;0.40;;
3999;SDS011;2014;53.604;10.112;2023-02-01T13:20:46;2.83;;;0.60;;
3999;SDS011;2014;53.604;10.112;2023-02-01T13:23:16;1.07;;;0.70;;
3999;SDS011;2014;53.604;10.112;2023-02-01T13:25:47;1.80;;;0.40;;
3999;SDS011;2014;53.604;10.112;2023-02-01T13:28:16;1.73;;;0.50;;
3999;SDS011;2014;53.604;10.112;2023-02-01T13:30:52;2.67;;;0.67;;
3999;SDS011;2014;53.604;10.112;2023-02-01T13:33:41;1.60;;;0.40;;
3999;SDS011;2014;53.604;10.112;2023-02-01T13:36:17;0.63;;;0.50;;
3999;SDS011;2014;53.604;10.112;2023-02-01T13:39:05;1.40;;;0.40;;
3999;SDS011;2014;53.604;10.112;2023-02-01T13:41:39;2.03;;;0.47;;
3999;SDS011;2014;53.604;10.112;2023-02-01T13:44:10;1.10;;;0.83;;
3999;SDS011;2014;53.604;10.112;2023-02-01T13:46:41;1.67;;;0.70;;
3999;SDS011;2014;53.604;10.112;2023-02-01T13:49:14;1.03;;;0.70;;
3999;SDS011;2014;53.604;10.112;2023-02-01T13:51:46;6.00;;;0.93;;
3999;SDS011;2014;53.604;10.112;2023-02-01T13:54:27;0.80;;;0.40;;
3999;SDS011;2014;53.604;10.112;2023-02-01T13:56:57;0.93;;;0.60;;
3999;SDS011;2014;53.604;10.112;2023-02-01T13:59:49;1.53;;;0.50;;
3999;SDS011;2014;53.604;10.112;2023-02-01T14:05:03;2.73;;;0.87;;
3999;SDS011;2014;53.604;10.112;2023-02-01T14:07:30;1.00;;;0.50;;
3999;SDS011;2014;53.604;10.112;2023-02-01T14:09:58;1.27;;;0.63;;
3999;SDS011;2014;53.604;10.112;2023-02-01T14:12:44;0.60;;;0.60;;
3999;SDS011;2014;53.604;10.112;2023-02-01T14:15:22;1.27;;;0.50;;
3999;SDS011;2014;53.604;10.112;2023-02-01T14:17:50;1.10;;;0.80;;
3999;SDS011;2014;53.604;10.112;2023-02-01T14:23:21;2.10;;;0.50;;
3999;SDS011;2014;53.604;10.112;2023-02-01T14:26:01;2.97;;;0.40;;
3999;SDS011;2014;53.604;10.112;2023-02-01T14:28:30;0.83;;;0.50;;
3999;SDS011;2014;53.604;10.112;2023-02-01T14:30:57;1.23;;;0.63;;
3999;SDS011;2014;53.604;10.112;2023-02-01T14:33:28;1.57;;;0.70;;
3999;SDS011;2014;53.604;10.112;2023-02-01T14:36:03;1.10;;;0.70;;
3999;SDS011;2014;53.604;10.112;2023-02-01T14:38:31;4.90;;;0.83;;
3999;SDS011;2014;53.604;10.112;2023-02-01T14:41:13;4.70;;;0.60;;
3999;SDS011;2014;53.604;10.112;2023-02-01T14:43:51;3.33;;;0.83;;
3999;SDS011;2014;53.604;10.112;2023-02-01T14:46:18;1.00;;;0.87;;
3999;SDS011;2014;53.604;10.112;2023-02-01T14:48:47;2.20;;;0.80;;
3999;SDS011;2014;53.604;10.112;2023-02-01T14:51:16;6.37;;;0.80;;
3999;SDS011;2014;53.604;10.112;2023-02-01T14:53:44;2.53;;;0.80;;
3999;SDS011;2014;53.604;10.112;2023-02-01T14:56:13;2.40;;;0.70;;
3999;SDS011;2014;53.604;10.112;2023-02-01T14:58:42;4.50;;;0.50;;
3999;SDS011;2014;53.604;10.112;2023-02-01T15:01:17;5.27;;;1.40;;
3999;SDS011;2014;53.604;10.112;2023-02-01T15:03:50;1.83;;;0.70;;
3999;SDS011;2014;53.604;10.112;2023-02-01T15:06:27;2.83;;;1.37;;
3999;SDS011;2014;53.604;10.112;2023-02-01T15:08:56;8.03;;;0.90;;
3999;SDS011;2014;53.604;10.112;2023-02-01T15:11:25;4.67;;;0.70;;
3999;SDS011;2014;53.604;10.112;2023-02-01T15:13:52;1.87;;;1.00;;
3999;SDS011;2014;53.604;10.112;2023-02-01T15:16:24;8.43;;;0.77;;
3999;SDS011;2014;53.604;10.112;2023-02-01T15:19:06;6.80;;;1.97;;
3999;SDS011;2014;53.604;10.112;2023-02-01T15:21:41;3.10;;;1.40;;
3999;SDS011;2014;53.604;10.112;2023-02-01T15:24:10;3.80;;;1.10;;
3999;SDS011;2014;53.604;10.112;2023-02-01T15:26:38;2.60;;;1.00;;
3999;SDS011;2014;53.604;10.112;2023-02-01T15:29:08;6.30;;;1.43;;